sensor_id;sensor_type;location;lat;lon;timestamp;P1;durP1;ratioP1;P2;durP2;ratioP2
34317;SDS011;20582;52.196;20.952;2022-12-11T00:01:56;65.65;;;26.58;;
34317;SDS011;20582;52.196;20.952;2022-12-11T00:04:22;66.63;;;25.20;;
34317;SDS011;20582;52.196;20.952;2022-12-11T00:06:48;65.82;;;26.02;;
34317;SDS011;20582;52.196;20.952;2022-12-11T00:09:18;70.38;;;28.98;;
34317;SDS011;20582;52.196;20.952;2022-12-11T00:11:45;74.10;;;28.02;;
34317;SDS011;20582;52.196;20.952;2022-12-11T00:14:11;72.50;;;27.60;;
34317;SDS011;20582;52.196;20.952;2022-12-11T00:16:37;75.43;;;26.33;;
34317;SDS011;20582;52.196;20.952;2022-12-11T00:19:03;70.93;;;26.65;;
34317;SDS011;20582;52.196;20.952;2022-12-11T00:21:29;70.47;;;26.50;;
34317;SDS011;20582;52.196;20.952;2022-12-11T00:23:55;76.70;;;28.52;;
34317;SDS011;20582;52.196;20.952;2022-12-11T00:26:21;72.97;;;26.58;;
34317;SDS011;20582;52.196;20.952;2022-12-11T00:28:47;77.60;;;27.30;;
34317;SDS011;20582;52.196;20.952;2022-12-11T00:31:17;73.20;;;28.70;;
34317;SDS011;20582;52.196;20.952;2022-12-11T00:33:44;74.45;;;25.58;;
34317;SDS011;20582;52.196;20.952;2022-12-11T00:36:17;72.68;;;26.80;;
34317;SDS011;20582;52.196;20.952;2022-12-11T00:41:09;71.97;;;24.98;;
34317;SDS011;20582;52.196;20.952;2022-12-11T00:43:35;75.32;;;26.08;;
34317;SDS011;20582;52.196;20.952;2022-12-11T00:46:01;75.10;;;26.25;;
34317;SDS011;20582;52.196;20.952;2022-12-11T00:48:27;69.72;;;25.85;;
34317;SDS011;20582;52.196;20.952;2022-12-11T00:50:53;71.60;;;24.17;;
34317;SDS011;20582;52.196;20.952;2022-12-11T00:53:19;71.22;;;25.75;;
34317;SDS011;20582;52.196;20.952;2022-12-11T00:55:46;80.65;;;27.45;;
34317;SDS011;20582;52.196;20.952;2022-12-11T00:58:12;74.30;;;27.08;;
34317;SDS011;20582;52.196;20.952;2022-12-11T01:00:39;73.82;;;26.98;;
34317;SDS011;20582;52.196;20.952;2022-12-11T01:03:06;63.95;;;24.63;;
34317;SDS011;20582;52.196;20.952;2022-12-11T01:05:32;67.97;;;24.85;;
34317;SDS011;20582;52.196;20.952;2022-12-11T01:07:58;67.13;;;24.88;;
34317;SDS011;20582;52.196;20.952;2022-12-11T01:10:24;66.63;;;24.77;;
34317;SDS011;20582;52.196;20.952;2022-12-11T01:15:20;64.68;;;24.77;;
34317;SDS011;20582;52.196;20.952;2022-12-11T01:17:47;78.63;;;27.02;;
34317;SDS011;20582;52.196;20.952;2022-12-11T01:20:13;60.88;;;24.70;;
34317;SDS011;20582;52.196;20.952;2022-12-11T01:22:39;63.08;;;24.45;;
34317;SDS011;20582;52.196;20.952;2022-12-11T01:25:05;67.10;;;25.35;;
34317;SDS011;20582;52.196;20.952;2022-12-11T01:27:31;56.42;;;23.50;;
34317;SDS011;20582;52.196;20.952;2022-12-11T01:29:57;63.78;;;24.67;;
34317;SDS011;20582;52.196;20.952;2022-12-11T01:32:23;60.03;;;23.00;;
34317;SDS011;20582;52.196;20.952;2022-12-11T01:34:49;64.18;;;23.92;;
34317;SDS011;20582;52.196;20.952;2022-12-11T01:37:15;63.53;;;23.45;;
34317;SDS011;20582;52.196;20.952;2022-12-11T01:39:41;63.10;;;22.88;;
34317;SDS011;20582;52.196;20.952;2022-12-11T01:42:09;56.35;;;21.05;;
34317;SDS011;20582;52.196;20.952;2022-12-11T01:47:05;56.72;;;21.92;;
34317;SDS011;20582;52.196;20.952;2022-12-11T01:49:31;58.83;;;23.27;;
34317;SDS011;20582;52.196;20.952;2022-12-11T01:52:00;52.03;;;20.70;;
34317;SDS011;20582;52.196;20.952;2022-12-11T01:54:27;54.60;;;20.48;;
34317;SDS011;20582;52.196;20.952;2022-12-11T01:56:55;47.60;;;19.08;;
34317;SDS011;20582;52.196;20.952;2022-12-11T01:59:23;52.63;;;20.15;;
34317;SDS011;20582;52.196;20.952;2022-12-11T02:01:52;49.67;;;17.75;;
34317;SDS011;20582;52.196;20.952;2022-12-11T02:04:19;48.28;;;19.05;;
34317;SDS011;20582;52.196;20.952;2022-12-11T02:06:46;44.50;;;17.08;;
34317;SDS011;20582;52.196;20.952;2022-12-11T02:09:13;45.75;;;16.67;;
34317;SDS011;20582;52.196;20.952;2022-12-11T02:11:44;44.97;;;17.58;;
34317;SDS011;20582;52.196;20.952;2022-12-11T02:14:15;47.05;;;18.67;;
34317;SDS011;20582;52.196;20.952;2022-12-11T02:19:30;48.50;;;15.70;;
34317;SDS011;20582;52.196;20.952;2022-12-11T02:22:01;44.63;;;16.63;;
34317;SDS011;20582;52.196;20.952;2022-12-11T02:24:37;44.55;;;17.15;;
34317;SDS011;20582;52.196;20.952;2022-12-11T02:32:24;46.30;;;18.25;;
34317;SDS011;20582;52.196;20.952;2022-12-11T02:37:20;43.75;;;17.60;;
34317;SDS011;20582;52.196;20.952;2022-12-11T02:39:48;39.50;;;16.60;;
34317;SDS011;20582;52.196;20.952;2022-12-11T02:42:15;42.25;;;16.17;;
34317;SDS011;20582;52.196;20.952;2022-12-11T02:44:42;46.97;;;17.02;;
34317;SDS011;20582;52.196;20.952;2022-12-11T02:47:10;45.97;;;17.48;;
34317;SDS011;20582;52.196;20.952;2022-12-11T02:49:37;52.78;;;19.60;;
34317;SDS011;20582;52.196;20.952;2022-12-11T02:52:04;47.10;;;19.48;;
34317;SDS011;20582;52.196;20.952;2022-12-11T02:54:31;52.67;;;21.08;;
34317;SDS011;20582;52.196;20.952;2022-12-11T02:57:03;52.00;;;19.55;;
34317;SDS011;20582;52.196;20.952;2022-12-11T02:59:37;51.72;;;20.92;;
34317;SDS011;20582;52.196;20.952;2022-12-11T03:02:04;52.80;;;20.50;;
34317;SDS011;20582;52.196;20.952;2022-12-11T03:04:30;54.03;;;20.58;;
34317;SDS011;20582;52.196;20.952;2022-12-11T03:06:58;57.95;;;20.77;;
34317;SDS011;20582;52.196;20.952;2022-12-11T03:09:26;56.20;;;21.73;;
34317;SDS011;20582;52.196;20.952;2022-12-11T03:11:53;58.42;;;22.58;;
34317;SDS011;20582;52.196;20.952;2022-12-11T03:14:19;59.17;;;21.70;;
34317;SDS011;20582;52.196;20.952;2022-12-11T03:16:56;60.78;;;22.92;;
34317;SDS011;20582;52.196;20.952;2022-12-11T03:19:47;56.05;;;22.02;;
34317;SDS011;20582;52.196;20.952;2022-12-11T03:24:49;57.05;;;19.88;;
34317;SDS011;20582;52.196;20.952;2022-12-11T03:30:10;48.78;;;19.70;;
34317;SDS011;20582;52.196;20.952;2022-12-11T03:32:48;58.97;;;21.92;;
34317;SDS011;20582;52.196;20.952;2022-12-11T03:35:19;48.55;;;18.55;;
34317;SDS011;20582;52.196;20.952;2022-12-11T03:37:45;54.08;;;20.60;;
34317;SDS011;20582;52.196;20.952;2022-12-11T03:40:14;52.13;;;20.30;;
34317;SDS011;20582;52.196;20.952;2022-12-11T03:42:41;46.42;;;17.23;;
34317;SDS011;20582;52.196;20.952;2022-12-11T03:45:08;52.55;;;20.10;;
34317;SDS011;20582;52.196;20.952;2022-12-11T03:47:34;52.97;;;21.05;;
34317;SDS011;20582;52.196;20.952;2022-12-11T03:50:01;47.88;;;19.83;;
34317;SDS011;20582;52.196;20.952;2022-12-11T03:52:29;48.95;;;18.77;;
34317;SDS011;20582;52.196;20.952;2022-12-11T03:54:57;44.20;;;17.85;;
34317;SDS011;20582;52.196;20.952;2022-12-11T03:57:25;49.05;;;18.67;;
34317;SDS011;20582;52.196;20.952;2022-12-11T03:59:53;54.97;;;20.48;;
34317;SDS011;20582;52.196;20.952;2022-12-11T04:02:19;52.63;;;18.83;;
34317;SDS011;20582;52.196;20.952;2022-12-11T04:04:45;50.42;;;20.30;;
34317;SDS011;20582;52.196;20.952;2022-12-11T04:07:11;48.83;;;19.67;;
34317;SDS011;20582;52.196;20.952;2022-12-11T04:09:37;42.50;;;16.73;;
34317;SDS011;20582;52.196;20.952;2022-12-11T04:12:03;43.38;;;17.92;;
34317;SDS011;20582;52.196;20.952;2022-12-11T04:14:29;46.13;;;17.67;;
34317;SDS011;20582;52.196;20.952;2022-12-11T04:17:14;46.97;;;18.27;;
34317;SDS011;20582;52.196;20.952;2022-12-11T04:19:58;44.67;;;18.63;;
34317;SDS011;20582;52.196;20.952;2022-12-11T04:22:43;44.92;;;18.67;;
34317;SDS011;20582;52.196;20.952;2022-12-11T04:25:28;50.60;;;17.73;;
34317;SDS011;20582;52.196;20.952;2022-12-11T04:27:54;49.88;;;20.00;;
34317;SDS011;20582;52.196;20.952;2022-12-11T04:30:21;48.13;;;19.63;;
34317;SDS011;20582;52.196;20.952;2022-12-11T04:32:47;47.63;;;18.95;;
34317;SDS011;20582;52.196;20.952;2022-12-11T04:35:13;49.45;;;19.20;;
34317;SDS011;20582;52.196;20.952;2022-12-11T04:37:40;53.03;;;18.63;;
34317;SDS011;20582;52.196;20.952;2022-12-11T04:40:07;47.63;;;18.45;;
34317;SDS011;20582;52.196;20.952;2022-12-11T04:42:34;46.75;;;18.38;;
34317;SDS011;20582;52.196;20.952;2022-12-11T04:45:00;44.80;;;18.27;;
34317;SDS011;20582;52.196;20.952;2022-12-11T04:47:25;41.55;;;16.95;;
34317;SDS011;20582;52.196;20.952;2022-12-11T04:49:51;47.60;;;19.35;;
34317;SDS011;20582;52.196;20.952;2022-12-11T04:52:17;51.72;;;18.63;;
34317;SDS011;20582;52.196;20.952;2022-12-11T04:54:43;44.25;;;18.00;;
34317;SDS011;20582;52.196;20.952;2022-12-11T04:57:09;51.05;;;20.27;;
34317;SDS011;20582;52.196;20.952;2022-12-11T04:59:36;47.95;;;18.98;;
34317;SDS011;20582;52.196;20.952;2022-12-11T05:02:02;47.25;;;18.33;;
34317;SDS011;20582;52.196;20.952;2022-12-11T05:04:31;58.90;;;24.02;;
34317;SDS011;20582;52.196;20.952;2022-12-11T05:06:58;45.53;;;18.77;;
34317;SDS011;20582;52.196;20.952;2022-12-11T05:09:24;51.17;;;18.55;;
34317;SDS011;20582;52.196;20.952;2022-12-11T05:11:51;47.60;;;18.60;;
34317;SDS011;20582;52.196;20.952;2022-12-11T05:14:17;48.50;;;18.65;;
34317;SDS011;20582;52.196;20.952;2022-12-11T05:16:43;52.00;;;21.92;;
34317;SDS011;20582;52.196;20.952;2022-12-11T05:19:09;47.42;;;19.33;;
34317;SDS011;20582;52.196;20.952;2022-12-11T05:21:35;49.47;;;21.15;;
34317;SDS011;20582;52.196;20.952;2022-12-11T05:24:01;52.78;;;20.65;;
34317;SDS011;20582;52.196;20.952;2022-12-11T05:26:27;47.97;;;20.23;;
34317;SDS011;20582;52.196;20.952;2022-12-11T05:28:54;51.67;;;21.55;;
34317;SDS011;20582;52.196;20.952;2022-12-11T05:31:21;54.45;;;21.23;;
34317;SDS011;20582;52.196;20.952;2022-12-11T05:33:47;48.25;;;20.48;;
34317;SDS011;20582;52.196;20.952;2022-12-11T05:36:21;51.83;;;20.35;;
34317;SDS011;20582;52.196;20.952;2022-12-11T05:38:48;45.65;;;17.23;;
34317;SDS011;20582;52.196;20.952;2022-12-11T05:41:15;42.53;;;17.50;;
34317;SDS011;20582;52.196;20.952;2022-12-11T05:43:42;50.63;;;20.88;;
34317;SDS011;20582;52.196;20.952;2022-12-11T05:46:09;40.75;;;17.30;;
34317;SDS011;20582;52.196;20.952;2022-12-11T05:48:35;44.22;;;19.02;;
34317;SDS011;20582;52.196;20.952;2022-12-11T05:51:02;44.85;;;18.98;;
34317;SDS011;20582;52.196;20.952;2022-12-11T05:53:29;46.85;;;18.77;;
34317;SDS011;20582;52.196;20.952;2022-12-11T05:56:00;51.88;;;20.27;;
34317;SDS011;20582;52.196;20.952;2022-12-11T05:58:26;55.22;;;20.30;;
34317;SDS011;20582;52.196;20.952;2022-12-11T06:00:53;51.63;;;20.20;;
34317;SDS011;20582;52.196;20.952;2022-12-11T06:03:18;51.30;;;20.15;;
34317;SDS011;20582;52.196;20.952;2022-12-11T06:05:44;50.78;;;20.10;;
34317;SDS011;20582;52.196;20.952;2022-12-11T06:08:10;50.90;;;20.10;;
34317;SDS011;20582;52.196;20.952;2022-12-11T06:10:36;53.63;;;19.83;;
34317;SDS011;20582;52.196;20.952;2022-12-11T06:13:02;48.67;;;19.85;;
34317;SDS011;20582;52.196;20.952;2022-12-11T06:15:29;51.10;;;19.27;;
34317;SDS011;20582;52.196;20.952;2022-12-11T06:17:54;42.45;;;17.45;;
34317;SDS011;20582;52.196;20.952;2022-12-11T06:20:20;45.10;;;17.70;;
34317;SDS011;20582;52.196;20.952;2022-12-11T06:22:46;48.42;;;18.23;;
34317;SDS011;20582;52.196;20.952;2022-12-11T06:25:12;45.17;;;17.15;;
34317;SDS011;20582;52.196;20.952;2022-12-11T06:27:38;47.78;;;17.83;;
34317;SDS011;20582;52.196;20.952;2022-12-11T06:30:04;52.65;;;17.33;;
34317;SDS011;20582;52.196;20.952;2022-12-11T06:32:30;41.97;;;16.88;;
34317;SDS011;20582;52.196;20.952;2022-12-11T06:34:56;41.92;;;17.42;;
34317;SDS011;20582;52.196;20.952;2022-12-11T06:37:22;42.65;;;15.55;;
34317;SDS011;20582;52.196;20.952;2022-12-11T06:39:48;44.85;;;15.95;;
34317;SDS011;20582;52.196;20.952;2022-12-11T06:42:14;40.63;;;15.77;;
34317;SDS011;20582;52.196;20.952;2022-12-11T06:44:41;42.53;;;15.95;;
34317;SDS011;20582;52.196;20.952;2022-12-11T06:47:07;42.22;;;16.90;;
34317;SDS011;20582;52.196;20.952;2022-12-11T06:49:33;40.05;;;16.10;;
34317;SDS011;20582;52.196;20.952;2022-12-11T06:51:59;47.13;;;17.10;;
34317;SDS011;20582;52.196;20.952;2022-12-11T06:54:25;43.67;;;15.98;;
34317;SDS011;20582;52.196;20.952;2022-12-11T06:56:52;36.33;;;15.05;;
34317;SDS011;20582;52.196;20.952;2022-12-11T06:59:18;42.63;;;15.48;;
34317;SDS011;20582;52.196;20.952;2022-12-11T07:01:44;39.13;;;15.80;;
34317;SDS011;20582;52.196;20.952;2022-12-11T07:04:10;36.88;;;15.25;;
34317;SDS011;20582;52.196;20.952;2022-12-11T07:06:36;35.13;;;15.68;;
34317;SDS011;20582;52.196;20.952;2022-12-11T07:09:02;40.42;;;15.00;;
34317;SDS011;20582;52.196;20.952;2022-12-11T07:11:29;38.50;;;17.25;;
34317;SDS011;20582;52.196;20.952;2022-12-11T07:13:57;40.53;;;15.68;;
34317;SDS011;20582;52.196;20.952;2022-12-11T07:16:23;39.45;;;16.30;;
34317;SDS011;20582;52.196;20.952;2022-12-11T07:18:50;40.28;;;16.42;;
34317;SDS011;20582;52.196;20.952;2022-12-11T07:21:16;40.90;;;16.10;;
34317;SDS011;20582;52.196;20.952;2022-12-11T07:23:42;39.28;;;15.15;;
34317;SDS011;20582;52.196;20.952;2022-12-11T07:26:10;36.80;;;14.93;;
34317;SDS011;20582;52.196;20.952;2022-12-11T07:28:36;41.17;;;16.67;;
34317;SDS011;20582;52.196;20.952;2022-12-11T07:31:06;40.33;;;15.50;;
34317;SDS011;20582;52.196;20.952;2022-12-11T07:33:32;43.53;;;17.17;;
34317;SDS011;20582;52.196;20.952;2022-12-11T07:36:05;43.63;;;16.70;;
34317;SDS011;20582;52.196;20.952;2022-12-11T07:38:32;45.03;;;17.77;;
34317;SDS011;20582;52.196;20.952;2022-12-11T07:41:02;43.25;;;17.15;;
34317;SDS011;20582;52.196;20.952;2022-12-11T07:43:28;40.30;;;16.95;;
34317;SDS011;20582;52.196;20.952;2022-12-11T07:45:59;42.45;;;17.27;;
34317;SDS011;20582;52.196;20.952;2022-12-11T07:48:25;41.20;;;16.83;;
34317;SDS011;20582;52.196;20.952;2022-12-11T07:50:51;40.75;;;16.50;;
34317;SDS011;20582;52.196;20.952;2022-12-11T07:53:17;39.22;;;15.50;;
34317;SDS011;20582;52.196;20.952;2022-12-11T07:55:43;38.63;;;16.52;;
34317;SDS011;20582;52.196;20.952;2022-12-11T07:58:09;41.55;;;14.55;;
34317;SDS011;20582;52.196;20.952;2022-12-11T08:00:35;39.67;;;17.13;;
34317;SDS011;20582;52.196;20.952;2022-12-11T08:03:01;41.05;;;15.57;;
34317;SDS011;20582;52.196;20.952;2022-12-11T08:05:27;38.65;;;14.70;;
34317;SDS011;20582;52.196;20.952;2022-12-11T08:07:53;43.35;;;16.15;;
34317;SDS011;20582;52.196;20.952;2022-12-11T08:10:19;42.03;;;16.90;;
34317;SDS011;20582;52.196;20.952;2022-12-11T08:12:46;36.95;;;14.93;;
34317;SDS011;20582;52.196;20.952;2022-12-11T08:15:12;39.40;;;16.38;;
34317;SDS011;20582;52.196;20.952;2022-12-11T08:17:38;39.38;;;15.20;;
34317;SDS011;20582;52.196;20.952;2022-12-11T08:20:04;39.33;;;15.23;;
34317;SDS011;20582;52.196;20.952;2022-12-11T08:22:30;36.40;;;15.38;;
34317;SDS011;20582;52.196;20.952;2022-12-11T08:24:56;43.38;;;16.48;;
34317;SDS011;20582;52.196;20.952;2022-12-11T08:27:22;39.45;;;15.25;;
34317;SDS011;20582;52.196;20.952;2022-12-11T08:29:48;37.10;;;14.10;;
34317;SDS011;20582;52.196;20.952;2022-12-11T08:32:14;35.15;;;14.20;;
34317;SDS011;20582;52.196;20.952;2022-12-11T08:34:40;40.65;;;14.65;;
34317;SDS011;20582;52.196;20.952;2022-12-11T08:37:06;41.05;;;15.15;;
34317;SDS011;20582;52.196;20.952;2022-12-11T08:39:32;37.80;;;15.32;;
34317;SDS011;20582;52.196;20.952;2022-12-11T08:41:58;41.78;;;15.55;;
34317;SDS011;20582;52.196;20.952;2022-12-11T08:44:24;38.05;;;15.43;;
34317;SDS011;20582;52.196;20.952;2022-12-11T08:46:51;34.70;;;14.80;;
34317;SDS011;20582;52.196;20.952;2022-12-11T08:49:17;34.10;;;12.60;;
34317;SDS011;20582;52.196;20.952;2022-12-11T08:51:43;35.85;;;15.65;;
34317;SDS011;20582;52.196;20.952;2022-12-11T08:54:09;36.80;;;13.75;;
34317;SDS011;20582;52.196;20.952;2022-12-11T08:56:35;36.10;;;14.57;;
34317;SDS011;20582;52.196;20.952;2022-12-11T08:59:01;34.70;;;13.55;;
34317;SDS011;20582;52.196;20.952;2022-12-11T09:01:28;36.38;;;14.35;;
34317;SDS011;20582;52.196;20.952;2022-12-11T09:03:54;37.25;;;14.88;;
34317;SDS011;20582;52.196;20.952;2022-12-11T09:06:21;37.50;;;14.77;;
34317;SDS011;20582;52.196;20.952;2022-12-11T09:08:48;37.03;;;14.10;;
34317;SDS011;20582;52.196;20.952;2022-12-11T09:11:16;38.72;;;15.57;;
34317;SDS011;20582;52.196;20.952;2022-12-11T09:13:43;39.78;;;15.55;;
34317;SDS011;20582;52.196;20.952;2022-12-11T09:16:11;43.33;;;14.93;;
34317;SDS011;20582;52.196;20.952;2022-12-11T09:18:37;44.47;;;15.95;;
34317;SDS011;20582;52.196;20.952;2022-12-11T09:21:05;36.85;;;14.80;;
34317;SDS011;20582;52.196;20.952;2022-12-11T09:23:32;34.55;;;13.68;;
34317;SDS011;20582;52.196;20.952;2022-12-11T09:25:58;37.40;;;14.95;;
34317;SDS011;20582;52.196;20.952;2022-12-11T09:28:24;37.45;;;13.82;;
34317;SDS011;20582;52.196;20.952;2022-12-11T09:30:50;36.83;;;14.05;;
34317;SDS011;20582;52.196;20.952;2022-12-11T09:33:16;35.00;;;13.95;;
34317;SDS011;20582;52.196;20.952;2022-12-11T09:35:42;33.92;;;12.88;;
34317;SDS011;20582;52.196;20.952;2022-12-11T09:38:08;37.85;;;14.15;;
34317;SDS011;20582;52.196;20.952;2022-12-11T09:40:41;30.40;;;13.88;;
34317;SDS011;20582;52.196;20.952;2022-12-11T09:43:14;35.60;;;14.15;;
34317;SDS011;20582;52.196;20.952;2022-12-11T09:45:42;35.83;;;14.05;;
34317;SDS011;20582;52.196;20.952;2022-12-11T09:48:08;35.38;;;13.52;;
34317;SDS011;20582;52.196;20.952;2022-12-11T09:50:35;33.55;;;13.27;;
34317;SDS011;20582;52.196;20.952;2022-12-11T09:53:06;35.45;;;14.18;;
34317;SDS011;20582;52.196;20.952;2022-12-11T09:58:13;31.20;;;13.35;;
34317;SDS011;20582;52.196;20.952;2022-12-11T10:01:05;33.58;;;13.00;;
34317;SDS011;20582;52.196;20.952;2022-12-11T10:03:39;34.72;;;13.10;;
34317;SDS011;20582;52.196;20.952;2022-12-11T10:06:11;28.35;;;12.55;;
34317;SDS011;20582;52.196;20.952;2022-12-11T10:11:25;32.92;;;13.35;;
34317;SDS011;20582;52.196;20.952;2022-12-11T10:14:01;32.78;;;13.05;;
34317;SDS011;20582;52.196;20.952;2022-12-11T10:16:34;35.95;;;14.73;;
34317;SDS011;20582;52.196;20.952;2022-12-11T10:19:01;34.45;;;13.10;;
34317;SDS011;20582;52.196;20.952;2022-12-11T10:21:28;34.33;;;12.40;;
34317;SDS011;20582;52.196;20.952;2022-12-11T10:24:00;36.55;;;14.82;;
34317;SDS011;20582;52.196;20.952;2022-12-11T10:26:27;32.55;;;12.68;;
34317;SDS011;20582;52.196;20.952;2022-12-11T10:28:57;31.98;;;13.30;;
34317;SDS011;20582;52.196;20.952;2022-12-11T10:31:29;36.70;;;13.50;;
34317;SDS011;20582;52.196;20.952;2022-12-11T10:34:02;37.55;;;14.20;;
34317;SDS011;20582;52.196;20.952;2022-12-11T10:36:38;37.65;;;14.32;;
34317;SDS011;20582;52.196;20.952;2022-12-11T10:39:15;36.17;;;14.32;;
34317;SDS011;20582;52.196;20.952;2022-12-11T10:41:42;35.38;;;13.20;;
34317;SDS011;20582;52.196;20.952;2022-12-11T10:44:25;33.80;;;13.52;;
34317;SDS011;20582;52.196;20.952;2022-12-11T10:47:10;33.13;;;13.15;;
34317;SDS011;20582;52.196;20.952;2022-12-11T10:49:37;37.40;;;14.52;;
34317;SDS011;20582;52.196;20.952;2022-12-11T10:52:10;33.35;;;14.02;;
34317;SDS011;20582;52.196;20.952;2022-12-11T10:54:38;32.47;;;14.18;;
34317;SDS011;20582;52.196;20.952;2022-12-11T10:57:08;35.60;;;14.82;;
34317;SDS011;20582;52.196;20.952;2022-12-11T11:02:20;32.12;;;12.94;;
34317;SDS011;20582;52.196;20.952;2022-12-11T11:04:47;31.52;;;13.65;;
34317;SDS011;20582;52.196;20.952;2022-12-11T11:07:17;31.95;;;12.95;;
34317;SDS011;20582;52.196;20.952;2022-12-11T11:09:43;26.70;;;11.43;;
34317;SDS011;20582;52.196;20.952;2022-12-11T11:12:20;38.17;;;16.17;;
34317;SDS011;20582;52.196;20.952;2022-12-11T11:14:57;29.90;;;12.40;;
34317;SDS011;20582;52.196;20.952;2022-12-11T11:17:23;31.90;;;13.13;;
34317;SDS011;20582;52.196;20.952;2022-12-11T11:19:49;38.45;;;14.77;;
34317;SDS011;20582;52.196;20.952;2022-12-11T11:22:15;31.10;;;13.13;;
34317;SDS011;20582;52.196;20.952;2022-12-11T11:24:50;29.67;;;12.35;;
34317;SDS011;20582;52.196;20.952;2022-12-11T11:30:23;29.33;;;11.98;;
34317;SDS011;20582;52.196;20.952;2022-12-11T11:32:41;30.50;;;13.60;;
34317;SDS011;20582;52.196;20.952;2022-12-11T11:37:37;30.67;;;13.10;;
34317;SDS011;20582;52.196;20.952;2022-12-11T11:40:09;30.85;;;12.82;;
34317;SDS011;20582;52.196;20.952;2022-12-11T11:45:25;30.38;;;13.02;;
34317;SDS011;20582;52.196;20.952;2022-12-11T11:50:26;29.83;;;11.93;;
34317;SDS011;20582;52.196;20.952;2022-12-11T11:52:56;26.60;;;11.70;;
34317;SDS011;20582;52.196;20.952;2022-12-11T12:00:38;29.58;;;12.48;;
34317;SDS011;20582;52.196;20.952;2022-12-11T12:08:13;33.08;;;14.63;;
34317;SDS011;20582;52.196;20.952;2022-12-11T12:13:29;34.40;;;13.63;;
34317;SDS011;20582;52.196;20.952;2022-12-11T12:15:57;28.50;;;12.65;;
34317;SDS011;20582;52.196;20.952;2022-12-11T12:18:31;27.30;;;12.10;;
34317;SDS011;20582;52.196;20.952;2022-12-11T12:25:59;30.85;;;13.18;;
34317;SDS011;20582;52.196;20.952;2022-12-11T12:31:12;34.20;;;13.63;;
34317;SDS011;20582;52.196;20.952;2022-12-11T12:36:25;30.58;;;13.43;;
34317;SDS011;20582;52.196;20.952;2022-12-11T12:39:04;34.40;;;14.15;;
34317;SDS011;20582;52.196;20.952;2022-12-11T12:41:45;34.13;;;13.30;;
34317;SDS011;20582;52.196;20.952;2022-12-11T12:44:18;34.88;;;13.82;;
34317;SDS011;20582;52.196;20.952;2022-12-11T12:49:27;32.13;;;13.07;;
34317;SDS011;20582;52.196;20.952;2022-12-11T12:51:55;29.65;;;12.07;;
34317;SDS011;20582;52.196;20.952;2022-12-11T12:54:21;36.38;;;13.40;;
34317;SDS011;20582;52.196;20.952;2022-12-11T12:56:48;28.45;;;12.75;;
34317;SDS011;20582;52.196;20.952;2022-12-11T12:59:18;31.67;;;13.20;;
34317;SDS011;20582;52.196;20.952;2022-12-11T13:01:45;29.83;;;11.82;;
34317;SDS011;20582;52.196;20.952;2022-12-11T13:04:22;29.13;;;11.80;;
34317;SDS011;20582;52.196;20.952;2022-12-11T13:06:51;27.10;;;12.65;;
34317;SDS011;20582;52.196;20.952;2022-12-11T13:11:45;30.95;;;12.95;;
34317;SDS011;20582;52.196;20.952;2022-12-11T13:16:41;32.50;;;12.05;;
34317;SDS011;20582;52.196;20.952;2022-12-11T13:21:58;26.20;;;11.18;;
34317;SDS011;20582;52.196;20.952;2022-12-11T13:24:27;28.27;;;12.32;;
34317;SDS011;20582;52.196;20.952;2022-12-11T13:26:53;29.38;;;12.68;;
34317;SDS011;20582;52.196;20.952;2022-12-11T13:31:56;25.65;;;11.88;;
34317;SDS011;20582;52.196;20.952;2022-12-11T13:34:22;30.17;;;12.65;;
34317;SDS011;20582;52.196;20.952;2022-12-11T13:36:49;27.15;;;11.50;;
34317;SDS011;20582;52.196;20.952;2022-12-11T13:39:21;29.92;;;13.02;;
34317;SDS011;20582;52.196;20.952;2022-12-11T13:41:49;34.35;;;12.52;;
34317;SDS011;20582;52.196;20.952;2022-12-11T13:44:20;31.13;;;13.85;;
34317;SDS011;20582;52.196;20.952;2022-12-11T13:46:47;30.15;;;13.38;;
34317;SDS011;20582;52.196;20.952;2022-12-11T13:49:21;32.40;;;14.32;;
34317;SDS011;20582;52.196;20.952;2022-12-11T13:51:56;29.40;;;13.80;;
34317;SDS011;20582;52.196;20.952;2022-12-11T13:54:22;26.95;;;12.32;;
34317;SDS011;20582;52.196;20.952;2022-12-11T13:59:37;29.23;;;11.68;;
34317;SDS011;20582;52.196;20.952;2022-12-11T14:02:37;31.38;;;14.20;;
34317;SDS011;20582;52.196;20.952;2022-12-11T14:04:59;31.58;;;12.73;;
34317;SDS011;20582;52.196;20.952;2022-12-11T14:07:27;27.20;;;13.00;;
34317;SDS011;20582;52.196;20.952;2022-12-11T14:09:55;30.13;;;12.90;;
34317;SDS011;20582;52.196;20.952;2022-12-11T14:12:24;29.73;;;13.55;;
34317;SDS011;20582;52.196;20.952;2022-12-11T14:14:52;25.55;;;11.60;;
34317;SDS011;20582;52.196;20.952;2022-12-11T14:17:24;27.73;;;12.68;;
34317;SDS011;20582;52.196;20.952;2022-12-11T14:19:51;28.83;;;12.82;;
34317;SDS011;20582;52.196;20.952;2022-12-11T14:22:19;28.23;;;12.35;;
34317;SDS011;20582;52.196;20.952;2022-12-11T14:24:49;28.10;;;12.32;;
34317;SDS011;20582;52.196;20.952;2022-12-11T14:27:15;26.88;;;11.80;;
34317;SDS011;20582;52.196;20.952;2022-12-11T14:29:42;25.05;;;11.13;;
34317;SDS011;20582;52.196;20.952;2022-12-11T14:32:12;25.88;;;11.52;;
34317;SDS011;20582;52.196;20.952;2022-12-11T14:34:42;29.83;;;12.35;;
34317;SDS011;20582;52.196;20.952;2022-12-11T14:37:08;24.48;;;10.93;;
34317;SDS011;20582;52.196;20.952;2022-12-11T14:39:37;25.55;;;11.73;;
34317;SDS011;20582;52.196;20.952;2022-12-11T14:42:09;28.23;;;12.27;;
34317;SDS011;20582;52.196;20.952;2022-12-11T14:44:59;26.98;;;11.43;;
34317;SDS011;20582;52.196;20.952;2022-12-11T14:47:27;28.17;;;12.95;;
34317;SDS011;20582;52.196;20.952;2022-12-11T14:49:59;26.10;;;11.75;;
34317;SDS011;20582;52.196;20.952;2022-12-11T14:52:44;27.40;;;12.35;;
34317;SDS011;20582;52.196;20.952;2022-12-11T14:55:15;28.17;;;11.73;;
34317;SDS011;20582;52.196;20.952;2022-12-11T14:57:43;30.75;;;12.60;;
34317;SDS011;20582;52.196;20.952;2022-12-11T15:00:23;26.73;;;11.70;;
34317;SDS011;20582;52.196;20.952;2022-12-11T15:02:56;31.83;;;12.93;;
34317;SDS011;20582;52.196;20.952;2022-12-11T15:05:23;27.50;;;11.98;;
34317;SDS011;20582;52.196;20.952;2022-12-11T15:07:56;27.30;;;11.60;;
34317;SDS011;20582;52.196;20.952;2022-12-11T15:10:23;27.83;;;12.18;;
34317;SDS011;20582;52.196;20.952;2022-12-11T15:12:51;28.58;;;12.13;;
34317;SDS011;20582;52.196;20.952;2022-12-11T15:15:17;26.20;;;11.82;;
34317;SDS011;20582;52.196;20.952;2022-12-11T15:17:44;27.13;;;12.07;;
34317;SDS011;20582;52.196;20.952;2022-12-11T15:20:19;28.33;;;11.52;;
34317;SDS011;20582;52.196;20.952;2022-12-11T15:22:45;27.85;;;11.07;;
34317;SDS011;20582;52.196;20.952;2022-12-11T15:25:18;28.38;;;11.77;;
34317;SDS011;20582;52.196;20.952;2022-12-11T15:27:48;24.85;;;11.05;;
34317;SDS011;20582;52.196;20.952;2022-12-11T15:30:23;22.70;;;10.02;;
34317;SDS011;20582;52.196;20.952;2022-12-11T15:35:33;21.80;;;9.55;;
34317;SDS011;20582;52.196;20.952;2022-12-11T15:37:59;26.55;;;11.13;;
34317;SDS011;20582;52.196;20.952;2022-12-11T15:40:26;26.38;;;10.73;;